createdAt,value
2019-05-12T00:02:14.759Z,2.80
2019-05-12T00:04:42.257Z,2.30
2019-05-12T00:07:09.812Z,2.60
2019-05-12T00:09:38.814Z,2.60
2019-05-12T00:12:08.245Z,2.70
2019-05-12T00:14:38.026Z,3.10
2019-05-12T00:17:05.410Z,3.12
2019-05-12T00:19:32.994Z,3.22
2019-05-12T00:22:00.556Z,3.83
2019-05-12T00:24:28.258Z,3.70
2019-05-12T00:26:58.106Z,4.00
2019-05-12T00:29:25.784Z,4.47
2019-05-12T00:31:53.459Z,4.83
2019-05-12T00:34:22.476Z,5.10
2019-05-12T00:36:50.088Z,5.42
2019-05-12T00:39:19.091Z,5.72
2019-05-12T00:41:48.216Z,4.72
2019-05-12T00:44:18.086Z,5.70
2019-05-12T00:46:45.434Z,4.90
2019-05-12T00:49:12.981Z,5.10
2019-05-12T00:51:40.448Z,4.35
2019-05-12T00:54:09.108Z,3.92
2019-05-12T00:56:39.235Z,3.95
2019-05-12T00:59:08.379Z,4.40
2019-05-12T01:01:38.097Z,4.70
2019-05-12T01:04:05.755Z,4.40
2019-05-12T01:06:34.232Z,4.55
2019-05-12T01:09:01.992Z,4.40
2019-05-12T01:11:30.655Z,4.55
2019-05-12T01:13:58.421Z,5.10
2019-05-12T01:16:26.087Z,4.15
2019-05-12T01:18:53.635Z,4.47
2019-05-12T01:21:22.290Z,4.37
2019-05-12T01:23:56.257Z,4.22
2019-05-12T01:26:19.504Z,3.83
2019-05-12T01:28:48.790Z,4.37
2019-05-12T01:31:18.110Z,4.33
2019-05-12T01:33:45.779Z,4.03
2019-05-12T01:36:13.256Z,3.42
2019-05-12T01:38:40.892Z,3.72
2019-05-12T01:41:08.778Z,3.40
2019-05-12T01:43:38.248Z,4.00
2019-05-12T01:46:08.013Z,4.62
2019-05-12T01:48:37.662Z,4.15
2019-05-12T01:51:04.845Z,3.37
2019-05-12T01:53:32.373Z,3.50
2019-05-12T01:55:59.846Z,3.37
2019-05-12T01:58:27.800Z,3.20
2019-05-12T02:00:55.461Z,3.35
2019-05-12T02:03:23.093Z,3.22
2019-05-12T02:05:57.820Z,3.27
2019-05-12T02:08:33.368Z,2.87
2019-05-12T02:11:19.739Z,2.87
2019-05-12T02:13:48.631Z,2.75
2019-05-12T02:16:18.583Z,2.72
2019-05-12T02:18:45.903Z,2.85
2019-05-12T02:21:13.583Z,2.52
2019-05-12T02:23:42.451Z,2.87
2019-05-12T02:26:10.021Z,2.77
2019-05-12T02:28:39.503Z,2.55
2019-05-12T02:31:09.618Z,2.83
2019-05-12T02:33:37.561Z,2.65
2019-05-12T02:36:05.445Z,2.55
2019-05-12T02:38:33.450Z,2.00
2019-05-12T02:41:01.142Z,2.25
2019-05-12T02:43:29.807Z,2.60
2019-05-12T02:45:57.354Z,2.60
2019-05-12T02:48:25.049Z,2.60
2019-05-12T02:50:54.496Z,2.50
2019-05-12T02:53:24.758Z,2.80
2019-05-12T02:55:54.198Z,2.80
2019-05-12T02:58:21.485Z,3.02
2019-05-12T03:00:49.214Z,2.75
2019-05-12T03:03:16.896Z,2.40
2019-05-12T03:05:44.557Z,2.60
2019-05-12T03:08:15.281Z,2.62
2019-05-12T03:10:44.897Z,2.65
2019-05-12T03:13:14.925Z,3.02
2019-05-12T03:15:44.563Z,2.72
2019-05-12T03:18:14.373Z,2.55
2019-05-12T03:20:41.328Z,2.15
2019-05-12T03:23:08.793Z,2.80
2019-05-12T03:25:37.016Z,2.70
2019-05-12T03:28:08.133Z,2.37
2019-05-12T03:30:38.325Z,3.20
2019-05-12T03:33:09.728Z,3.30
2019-05-12T03:35:41.582Z,2.87
2019-05-12T03:38:04.427Z,3.05
2019-05-12T03:40:37.575Z,3.00
2019-05-12T03:43:01.661Z,2.85
2019-05-12T03:45:29.213Z,2.50
2019-05-12T03:47:56.657Z,2.90
2019-05-12T03:50:24.642Z,2.72
2019-05-12T03:52:52.457Z,2.62
2019-05-12T03:55:31.735Z,2.65
2019-05-12T03:57:49.258Z,2.30
2019-05-12T04:00:16.712Z,2.42
2019-05-12T04:02:45.381Z,2.15
2019-05-12T04:05:15.600Z,2.47
2019-05-12T04:07:45.021Z,2.15
2019-05-12T04:10:14.766Z,2.30
2019-05-12T04:12:44.630Z,2.40
2019-05-12T04:15:11.161Z,2.30
2019-05-12T04:17:38.693Z,2.30
2019-05-12T04:20:06.158Z,2.52
2019-05-12T04:22:35.262Z,2.15
2019-05-12T04:25:06.222Z,2.20
2019-05-12T04:27:34.797Z,2.50
2019-05-12T04:30:05.473Z,2.50
2019-05-12T04:32:35.745Z,2.22
2019-05-12T04:35:05.039Z,2.05
2019-05-12T04:37:35.206Z,1.95
2019-05-12T04:40:05.434Z,2.72
2019-05-12T04:42:35.037Z,2.30
2019-05-12T04:45:04.595Z,1.85
2019-05-12T04:47:34.991Z,2.35
2019-05-12T04:50:05.377Z,2.08
2019-05-12T04:52:35.147Z,1.70
2019-05-12T04:55:04.727Z,1.60
2019-05-12T04:57:34.664Z,2.02
2019-05-12T05:00:07.166Z,1.70
2019-05-12T05:02:36.488Z,1.83
2019-05-12T05:05:05.598Z,1.98
2019-05-12T05:07:35.878Z,1.75
2019-05-12T05:10:04.708Z,2.10
2019-05-12T05:12:34.466Z,3.33
2019-05-12T05:15:05.413Z,1.70
2019-05-12T05:17:34.766Z,1.52
2019-05-12T05:20:05.070Z,1.40
2019-05-12T05:22:33.320Z,1.77
2019-05-12T05:25:01.195Z,1.85
2019-05-12T05:27:28.862Z,1.80
2019-05-12T05:29:56.451Z,1.87
2019-05-12T05:32:24.130Z,1.70
2019-05-12T05:34:55.802Z,1.57
2019-05-12T05:37:23.685Z,1.65
2019-05-12T05:39:50.588Z,2.22
2019-05-12T05:42:22.222Z,1.80
2019-05-12T05:44:47.511Z,1.52
2019-05-12T05:47:15.184Z,1.30
2019-05-12T05:49:43.447Z,1.65
2019-05-12T05:52:13.621Z,1.70
2019-05-12T05:54:40.682Z,1.20
2019-05-12T05:57:08.355Z,1.60
2019-05-12T05:59:36.819Z,1.95
2019-05-12T06:02:05.061Z,1.90
2019-05-12T06:04:34.134Z,1.50
2019-05-12T06:07:04.107Z,1.67
2019-05-12T06:09:33.916Z,1.50
2019-05-12T06:12:05.091Z,1.65
2019-05-12T06:14:31.276Z,1.60
2019-05-12T06:16:58.934Z,1.40
2019-05-12T06:19:26.384Z,1.67
2019-05-12T06:21:54.086Z,1.62
2019-05-12T06:24:23.784Z,1.30
2019-05-12T06:26:57.805Z,1.40
2019-05-12T06:29:22.837Z,1.70
2019-05-12T06:31:50.312Z,1.50
2019-05-12T06:34:20.877Z,1.80
2019-05-12T06:36:47.220Z,1.90
2019-05-12T06:39:18.606Z,1.75
2019-05-12T06:41:44.450Z,1.67
2019-05-12T06:44:14.866Z,1.52
2019-05-12T06:46:44.104Z,2.05
2019-05-12T06:49:13.581Z,2.00
2019-05-12T06:51:40.543Z,1.75
2019-05-12T06:54:12.059Z,1.32
2019-05-12T06:56:37.494Z,1.90
2019-05-12T06:59:09.873Z,1.40
2019-05-12T07:01:34.386Z,1.45
2019-05-12T07:04:06.761Z,1.75
2019-05-12T07:06:33.745Z,1.80
2019-05-12T07:09:08.551Z,2.60
2019-05-12T07:11:41.564Z,49.00
2019-05-12T07:14:05.289Z,2.50
2019-05-12T07:16:30.385Z,4.60
2019-05-12T07:18:59.169Z,3.05
2019-05-12T07:21:27.419Z,2.35
2019-05-12T07:23:55.171Z,2.60
2019-05-12T07:26:23.434Z,2.15
2019-05-12T07:28:53.918Z,3.15
2019-05-12T07:31:23.183Z,2.58
2019-05-12T07:33:50.125Z,5.40
2019-05-12T07:36:17.699Z,5.17
2019-05-12T07:38:45.463Z,5.25
2019-05-12T07:41:14.437Z,4.60
2019-05-12T07:43:44.170Z,4.00
2019-05-12T07:46:13.406Z,3.85
2019-05-12T07:48:47.923Z,2.70
2019-05-12T07:51:10.726Z,3.55
2019-05-12T07:53:38.383Z,2.77
2019-05-12T07:56:05.839Z,3.60
2019-05-12T07:58:33.440Z,3.77
2019-05-12T08:01:05.009Z,2.67
2019-05-12T08:03:30.544Z,3.30
2019-05-12T08:06:01.765Z,3.37
2019-05-12T08:08:28.050Z,2.60
2019-05-12T08:10:56.103Z,2.40
2019-05-12T08:13:24.878Z,2.92
2019-05-12T08:15:55.701Z,3.83
2019-05-12T08:18:21.752Z,2.85
2019-05-12T08:20:49.528Z,2.80
2019-05-12T08:23:17.164Z,3.10
2019-05-12T08:25:45.065Z,3.02
2019-05-12T08:28:18.183Z,3.17
2019-05-12T08:30:49.777Z,2.75
2019-05-12T08:33:11.445Z,3.40
2019-05-12T08:35:39.121Z,3.33
2019-05-12T08:38:06.562Z,3.60
2019-05-12T08:40:34.297Z,3.90
2019-05-12T08:43:08.007Z,3.45
2019-05-12T08:45:36.753Z,4.60
2019-05-12T08:48:03.700Z,3.77
2019-05-12T08:50:33.803Z,3.75
2019-05-12T08:53:01.196Z,3.67
2019-05-12T08:55:31.604Z,4.50
2019-05-12T08:58:01.010Z,3.52
2019-05-12T09:00:45.337Z,4.10
2019-05-12T09:03:09.800Z,4.15
2019-05-12T09:05:38.551Z,3.55
2019-05-12T09:08:07.559Z,4.25
2019-05-12T09:10:35.243Z,7.60
2019-05-12T09:13:04.130Z,5.20
2019-05-12T09:15:34.553Z,6.37
2019-05-12T09:18:04.747Z,5.42
2019-05-12T09:20:33.216Z,4.50
2019-05-12T09:23:02.009Z,4.67
2019-05-12T09:25:30.432Z,6.80
2019-05-12T09:27:57.909Z,6.58
2019-05-12T09:30:26.685Z,8.25
2019-05-12T09:32:56.133Z,5.53
2019-05-12T09:35:28.768Z,4.53
2019-05-12T09:37:53.587Z,4.40
2019-05-12T09:40:22.802Z,4.33
2019-05-12T09:43:13.821Z,4.33
2019-05-12T09:45:49.822Z,4.20
2019-05-12T09:48:14.121Z,4.55
2019-05-12T09:50:46.152Z,4.35
2019-05-12T09:53:14.184Z,3.67
2019-05-12T09:55:43.622Z,3.80
2019-05-12T09:58:14.015Z,4.28
2019-05-12T10:00:40.190Z,4.25
2019-05-12T10:03:08.712Z,4.30
2019-05-12T10:05:40.900Z,4.78
2019-05-12T10:08:05.932Z,4.25
2019-05-12T10:10:38.108Z,6.75
2019-05-12T10:13:04.553Z,5.75
2019-05-12T10:15:33.172Z,6.17
2019-05-12T10:18:08.949Z,6.12
2019-05-12T10:20:35.373Z,8.80
2019-05-12T10:22:59.933Z,11.10
2019-05-12T10:25:28.673Z,10.63
2019-05-12T10:28:05.335Z,8.05
2019-05-12T10:30:27.588Z,14.25
2019-05-12T10:32:55.062Z,8.50
2019-05-12T10:35:26.219Z,8.03
2019-05-12T10:37:53.767Z,10.45
2019-05-12T10:40:23.320Z,8.93
2019-05-12T10:42:53.428Z,16.40
2019-05-12T10:45:23.533Z,20.20
2019-05-12T10:47:51.143Z,8.93
2019-05-12T10:50:18.595Z,11.38
2019-05-12T10:52:46.279Z,27.82
2019-05-12T10:55:14.358Z,13.50
2019-05-12T10:57:43.797Z,23.27
2019-05-12T11:00:14.325Z,20.62
2019-05-12T11:02:42.010Z,9.83
2019-05-12T11:05:12.572Z,15.95
2019-05-12T11:07:39.157Z,10.10
2019-05-12T11:10:15.524Z,17.77
2019-05-12T11:12:36.744Z,31.30
2019-05-12T11:15:06.813Z,35.70
2019-05-12T11:17:49.728Z,27.07
2019-05-12T11:20:15.566Z,23.22
2019-05-12T11:22:43.899Z,29.72
2019-05-12T11:25:14.324Z,13.93
2019-05-12T11:27:43.701Z,12.07
2019-05-12T11:30:13.200Z,13.78
2019-05-12T11:32:40.702Z,15.60
2019-05-12T11:35:08.588Z,12.98
2019-05-12T11:37:36.029Z,12.07
2019-05-12T11:40:04.385Z,17.73
2019-05-12T11:42:33.588Z,13.38
2019-05-12T11:45:01.435Z,17.65
2019-05-12T11:47:29.305Z,13.53
2019-05-12T11:49:58.527Z,23.47
2019-05-12T11:52:26.324Z,29.07
2019-05-12T11:54:54.442Z,28.52
2019-05-12T11:57:28.237Z,14.73
2019-05-12T11:59:59.174Z,15.58
2019-05-12T12:02:26.311Z,31.12
2019-05-12T12:04:50.709Z,13.60
2019-05-12T12:07:18.299Z,15.00
2019-05-12T12:09:49.365Z,12.85
2019-05-12T12:12:15.445Z,17.55
2019-05-12T12:14:46.193Z,15.00
2019-05-12T12:17:13.605Z,18.85
2019-05-12T12:19:44.587Z,17.75
2019-05-12T12:22:10.761Z,11.45
2019-05-12T12:24:38.526Z,15.70
2019-05-12T12:27:06.223Z,15.65
2019-05-12T12:29:34.514Z,11.35
2019-05-12T12:32:02.410Z,11.70
2019-05-12T12:34:30.538Z,10.88
2019-05-12T12:36:58.255Z,12.93
2019-05-12T12:39:25.851Z,13.88
2019-05-12T12:41:59.858Z,15.40
2019-05-12T12:44:24.201Z,11.90
2019-05-12T12:46:59.804Z,13.48
2019-05-12T12:49:23.359Z,16.80
2019-05-12T12:51:51.081Z,17.50
2019-05-12T12:54:18.633Z,11.57
2019-05-12T12:56:46.280Z,17.92
2019-05-12T12:59:14.758Z,16.67
2019-05-12T13:01:44.244Z,17.30
2019-05-12T13:04:13.272Z,12.90
2019-05-12T13:06:43.602Z,12.58
2019-05-12T13:09:18.200Z,13.28
2019-05-12T13:11:40.150Z,14.38
2019-05-12T13:14:07.707Z,11.68
2019-05-12T13:16:35.287Z,12.40
2019-05-12T13:19:06.100Z,12.70
2019-05-12T13:21:33.571Z,10.90
2019-05-12T13:24:03.631Z,11.43
2019-05-12T13:26:30.747Z,10.88
2019-05-12T13:28:58.378Z,12.03
2019-05-12T13:31:25.885Z,11.22
2019-05-12T13:33:54.947Z,11.88
2019-05-12T13:36:24.168Z,10.38
2019-05-12T13:38:51.993Z,9.68
2019-05-12T13:41:20.163Z,9.73
2019-05-12T13:43:54.745Z,9.68
2019-05-12T13:46:17.409Z,11.28
2019-05-12T13:48:44.989Z,8.78
2019-05-12T13:51:15.732Z,9.25
2019-05-12T13:53:46.471Z,10.15
2019-05-12T13:56:13.539Z,10.00
2019-05-12T13:58:45.385Z,8.30
2019-05-12T14:01:17.024Z,9.25
2019-05-12T14:03:44.683Z,8.83
2019-05-12T14:06:09.411Z,9.78
2019-05-12T14:08:36.984Z,8.83
2019-05-12T14:11:04.647Z,10.18
2019-05-12T14:13:33.811Z,8.53
2019-05-12T14:16:05.770Z,7.83
2019-05-12T14:18:33.096Z,9.30
2019-05-12T14:21:00.814Z,8.95
2019-05-12T14:23:28.249Z,9.83
2019-05-12T14:25:55.938Z,9.28
2019-05-12T14:28:23.598Z,10.72
2019-05-12T14:30:53.852Z,8.63
2019-05-12T14:33:20.776Z,9.40
2019-05-12T14:35:48.479Z,9.55
2019-05-12T14:38:19.318Z,10.10
2019-05-12T14:40:45.900Z,10.75
2019-05-12T14:43:16.816Z,9.43
2019-05-12T14:45:43.992Z,7.05
2019-05-12T14:48:13.675Z,9.28
2019-05-12T14:50:41.295Z,8.60
2019-05-12T14:53:08.774Z,8.80
2019-05-12T14:55:36.251Z,8.93
2019-05-12T14:58:03.838Z,8.75
2019-05-12T15:00:34.001Z,11.45
2019-05-12T15:03:05.485Z,10.70
2019-05-12T15:05:30.359Z,9.25
2019-05-12T15:08:00.335Z,10.15
2019-05-12T15:10:27.498Z,9.05
2019-05-12T15:12:55.168Z,10.38
2019-05-12T15:15:24.228Z,10.95
2019-05-12T15:17:56.729Z,11.25
2019-05-12T15:20:24.098Z,13.08
2019-05-12T15:22:55.217Z,13.13
2019-05-12T15:25:21.864Z,13.28
2019-05-12T15:27:49.550Z,12.65
2019-05-12T15:30:23.337Z,12.18
2019-05-12T15:32:46.594Z,13.10
2019-05-12T15:35:14.240Z,11.12
2019-05-12T15:37:43.710Z,11.22
2019-05-12T15:40:14.197Z,10.40
2019-05-12T15:42:41.396Z,10.90
2019-05-12T15:45:12.826Z,11.53
2019-05-12T15:47:39.540Z,11.20
2019-05-12T15:50:08.117Z,11.28
2019-05-12T15:52:42.268Z,11.70
2019-05-12T15:55:05.817Z,12.47
2019-05-12T15:57:33.569Z,11.38
2019-05-12T16:00:04.777Z,11.05
2019-05-12T16:02:33.888Z,11.45
2019-05-12T16:05:03.976Z,10.60
2019-05-12T16:07:35.709Z,12.03
2019-05-12T16:10:00.229Z,10.13
2019-05-12T16:12:27.802Z,10.63
2019-05-12T16:14:55.393Z,10.05
2019-05-12T16:17:25.015Z,10.38
2019-05-12T16:19:54.115Z,10.25
2019-05-12T16:22:23.289Z,11.57
2019-05-12T16:24:51.293Z,12.25
2019-05-12T16:27:24.875Z,13.98
2019-05-12T16:29:53.371Z,14.30
2019-05-12T16:32:26.770Z,13.20
2019-05-12T16:34:50.322Z,14.15
2019-05-12T16:37:25.126Z,13.78
2019-05-12T16:39:47.606Z,13.83
2019-05-12T16:42:15.158Z,13.40
2019-05-12T16:44:44.051Z,12.28
2019-05-12T16:47:13.543Z,11.45
2019-05-12T16:49:44.436Z,11.28
2019-05-12T16:52:13.690Z,11.78
2019-05-12T16:54:41.211Z,11.03
2019-05-12T16:57:12.988Z,11.03
2019-05-12T16:59:38.250Z,11.83
2019-05-12T17:02:09.847Z,11.43
2019-05-12T17:04:35.269Z,9.88
2019-05-12T17:07:02.927Z,10.20
2019-05-12T17:09:30.481Z,12.28
2019-05-12T17:11:58.019Z,13.03
2019-05-12T17:14:28.476Z,13.03
2019-05-12T17:16:56.140Z,11.97
2019-05-12T17:19:23.829Z,11.90
2019-05-12T17:21:57.580Z,11.57
2019-05-12T17:24:20.962Z,11.90
2019-05-12T17:26:48.804Z,11.70
2019-05-12T17:29:16.377Z,11.28
2019-05-12T17:31:44.382Z,10.93
2019-05-12T17:34:14.222Z,11.90
2019-05-12T17:36:41.738Z,12.63
2019-05-12T17:39:09.415Z,12.82
2019-05-12T17:41:42.270Z,13.13
2019-05-12T17:44:06.642Z,12.88
2019-05-12T17:46:38.055Z,12.00
2019-05-12T17:49:03.998Z,12.68
2019-05-12T17:51:31.942Z,13.65
2019-05-12T17:53:59.604Z,13.28
2019-05-12T17:56:34.186Z,14.10
2019-05-12T17:58:56.754Z,14.87
2019-05-12T18:01:31.252Z,16.25
2019-05-12T18:03:54.747Z,10.53
2019-05-12T18:06:26.920Z,10.55
2019-05-12T18:08:53.373Z,9.13
2019-05-12T18:11:23.710Z,10.55
2019-05-12T18:14:01.704Z,10.98
2019-05-12T18:16:22.710Z,12.20
2019-05-12T18:18:50.178Z,11.90
2019-05-12T18:21:22.117Z,12.45
2019-05-12T18:23:47.131Z,21.25
2019-05-12T18:26:16.321Z,8.28
2019-05-12T18:28:44.399Z,11.65
2019-05-12T18:31:13.834Z,9.40
2019-05-12T18:33:48.945Z,8.63
2019-05-12T18:36:10.866Z,11.45
2019-05-12T18:38:38.446Z,10.90
2019-05-12T18:41:05.998Z,10.38
2019-05-12T18:43:34.594Z,11.83
2019-05-12T18:46:06.291Z,12.63
2019-05-12T18:48:34.314Z,10.88
2019-05-12T18:51:02.908Z,10.00
2019-05-12T18:53:31.875Z,10.53
2019-05-12T18:56:00.277Z,11.00
2019-05-12T18:58:31.112Z,12.10
2019-05-12T19:00:57.487Z,11.83
2019-05-12T19:03:25.625Z,12.93
2019-05-12T19:05:54.267Z,10.88
2019-05-12T19:08:23.642Z,12.10
2019-05-12T19:10:51.943Z,13.05
2019-05-12T19:13:19.603Z,13.88
2019-05-12T19:15:47.378Z,13.08
2019-05-12T19:18:17.967Z,14.25
2019-05-12T19:20:47.857Z,13.95
2019-05-12T19:23:14.341Z,15.30
2019-05-12T19:25:43.645Z,13.13
2019-05-12T19:28:13.542Z,15.68
2019-05-12T19:30:41.198Z,15.03
2019-05-12T19:33:11.130Z,12.80
2019-05-12T19:35:40.237Z,15.05
2019-05-12T19:38:13.365Z,13.53
2019-05-12T19:40:40.353Z,14.65
2019-05-12T19:43:08.475Z,15.32
2019-05-12T19:45:36.285Z,13.30
2019-05-12T19:48:04.207Z,13.80
2019-05-12T19:50:31.935Z,14.30
2019-05-12T19:53:00.925Z,14.10
2019-05-12T19:55:30.390Z,16.52
2019-05-12T19:58:05.440Z,16.93
2019-05-12T20:00:28.819Z,17.25
2019-05-12T20:02:56.441Z,17.45
2019-05-12T20:05:25.287Z,18.67
2019-05-12T20:07:53.706Z,18.55
2019-05-12T20:10:21.413Z,19.87
2019-05-12T20:12:54.178Z,19.27
2019-05-12T20:15:18.543Z,19.15
2019-05-12T20:17:48.774Z,19.60
2019-05-12T20:20:17.874Z,18.27
2019-05-12T20:22:45.366Z,17.12
2019-05-12T20:25:14.626Z,16.02
2019-05-12T20:27:44.333Z,16.75
2019-05-12T20:30:17.233Z,17.50
2019-05-12T20:32:43.527Z,17.27
2019-05-12T20:35:10.992Z,16.80
2019-05-12T20:37:46.595Z,17.48
2019-05-12T20:40:08.064Z,17.27
2019-05-12T20:42:42.283Z,17.23
2019-05-12T20:45:08.269Z,16.75
2019-05-12T20:47:38.976Z,12.40
2019-05-12T20:50:06.281Z,17.37
2019-05-12T20:52:39.341Z,18.15
2019-05-12T20:55:04.566Z,19.32
2019-05-12T20:57:34.515Z,20.08
2019-05-12T21:00:08.255Z,18.07
2019-05-12T21:02:34.866Z,19.30
2019-05-12T21:05:09.949Z,18.20
2019-05-12T21:07:34.097Z,18.15
2019-05-12T21:10:05.865Z,18.85
2019-05-12T21:12:33.532Z,17.77
2019-05-12T21:15:13.688Z,19.45
2019-05-12T21:17:40.516Z,17.67
2019-05-12T21:20:04.683Z,17.23
2019-05-12T21:22:34.172Z,16.60
2019-05-12T21:25:04.176Z,16.25
2019-05-12T21:27:33.431Z,16.32
2019-05-12T21:30:09.886Z,15.38
2019-05-12T21:32:30.889Z,16.55
2019-05-12T21:34:59.620Z,18.45
2019-05-12T21:37:28.370Z,16.87
2019-05-12T21:39:56.271Z,14.75
2019-05-12T21:42:25.186Z,16.87
2019-05-12T21:44:53.424Z,16.48
2019-05-12T21:47:21.269Z,17.27
2019-05-12T21:49:52.897Z,14.85
2019-05-12T21:52:25.949Z,14.85
2019-05-12T21:54:55.422Z,15.32
2019-05-12T21:57:27.385Z,13.55
2019-05-12T21:59:55.474Z,15.95
2019-05-12T22:02:29.019Z,14.07
2019-05-12T22:04:53.209Z,11.40
2019-05-12T22:07:23.896Z,12.37
2019-05-12T22:09:53.710Z,12.58
2019-05-12T22:12:23.373Z,13.20
2019-05-12T22:14:54.171Z,12.73
2019-05-12T22:17:21.237Z,11.70
2019-05-12T22:19:49.127Z,12.07
2019-05-12T22:22:19.617Z,12.47
2019-05-12T22:24:46.379Z,11.50
2019-05-12T22:27:21.944Z,12.10
2019-05-12T22:29:43.756Z,11.30
2019-05-12T22:32:13.683Z,11.75
2019-05-12T22:34:42.584Z,12.15
2019-05-12T22:37:10.397Z,12.15
2019-05-12T22:39:37.949Z,12.68
2019-05-12T22:42:05.507Z,12.73
2019-05-12T22:44:34.719Z,12.18
2019-05-12T22:47:04.239Z,10.58
2019-05-12T22:49:33.896Z,10.85
2019-05-12T22:52:03.274Z,11.20
2019-05-12T22:54:30.679Z,11.53
2019-05-12T22:56:58.143Z,11.03
2019-05-12T22:59:25.727Z,11.88
2019-05-12T23:01:54.169Z,11.45
2019-05-12T23:04:25.870Z,11.80
2019-05-12T23:06:51.331Z,11.85
2019-05-12T23:09:19.399Z,12.07
2019-05-12T23:11:48.427Z,12.40
2019-05-12T23:14:21.016Z,12.15
2019-05-12T23:16:45.357Z,12.98
2019-05-12T23:19:15.042Z,12.88
2019-05-12T23:21:43.921Z,13.10
2019-05-12T23:24:11.591Z,13.58
2019-05-12T23:26:47.591Z,12.88
2019-05-12T23:29:08.722Z,13.20
2019-05-12T23:31:36.476Z,13.53
2019-05-12T23:34:06.331Z,14.45
2019-05-12T23:36:36.662Z,13.90
2019-05-12T23:39:05.665Z,13.32
2019-05-12T23:41:34.374Z,13.53
2019-05-12T23:44:04.265Z,13.95
2019-05-12T23:46:34.169Z,13.68
2019-05-12T23:49:03.665Z,15.50
2019-05-12T23:51:30.875Z,14.28
2019-05-12T23:53:58.459Z,13.93
2019-05-12T23:56:25.891Z,14.43
2019-05-12T23:58:53.938Z,14.47
